Minerva Roxanne — SWSZ — position and weather

sailwx.info

Track history (hours):
 
Tides and Currents Weather Stations Pressure Air Temp Water Temp Dewpoint Dewpoint Depression Visibility Wind Speed Wind Dir Waves Ship Positions

Minerva Roxanne

Last reported at 2018-May-20 16:47 UTC. Time now 2018-May-20 17:54 UTC.
Position N 57°26' E 005°54'.

Length 243 m; draft 8.2 m.

Type: Ship. MMSI: 240198000.

Date/timePositionNaut miles runAvg speedWind from/ knotsBaromVisibWave heightAir tempDewpointWater temp
2018-May-20 16:47N 57°26' E 005°54'411.2
2018-May-20 16:25N 57°26' E 005°46'511.3
2018-May-20 16:00N 57°26' E 005°37'611.6
2018-May-20 15:29N 57°25' E 005°26'611.7
2018-May-20 14:58N 57°24' E 005°15'611.6
2018-May-20 14:28N 57°26' E 005°05'711.8
2018-May-20 13:53N 57°29' E 004°53'911.9
2018-May-20 13:07N 57°33' E 004°38'211.9
2018-May-20 12:58N 57°34' E 004°35'1211.7
2018-May-20 11:56N 57°38' E 004°14'811.5
2018-May-20 11:16N 57°41' E 004°01'1111.4
2018-May-20 10:19N 57°46' E 003°42'511.3
2018-May-20 09:51N 57°48' E 003°33'611.3
2018-May-20 09:22N 57°50' E 003°24'411.3
2018-May-20 09:00N 57°52' E 003°17'611.3
2018-May-20 08:30N 57°54' E 003°07'611.2
2018-May-20 07:59N 57°57' E 002°57'511.3
2018-May-20 07:30N 57°58' E 002°48'611.2
2018-May-20 06:59N 58°01' E 002°38'511.3
2018-May-20 06:30N 58°03' E 002°28'811.4
2018-May-20 05:47N 58°06' E 002°14'311.4
2018-May-20 05:30N 58°08' E 002°09'711.4
2018-May-20 04:56N 58°10' E 001°57'511.4
2018-May-20 04:30N 58°12' E 001°49'911.5
2018-May-20 03:46N 58°16' E 001°34'311.5
2018-May-20 03:29N 58°17' E 001°28'1511.5
2018-May-20 02:12N 58°23' E 001°03'311.4
2018-May-20 01:59N 58°24' E 000°58'611.5
2018-May-20 01:27N 58°26' E 000°47'511.2
2018-May-20 00:58N 58°29' E 000°38'611.3
2018-May-20 00:28N 58°31' E 000°28'510.8
2018-May-19 23:59N 58°33' E 000°20'304 8.1
2018-May-18 10:18N 55°46' W 007°28'411.2
2018-May-18 09:59N 55°43' W 007°26'610.7
2018-May-18 09:27N 55°38' W 007°21'510.7
2018-May-18 09:00N 55°36' W 007°13'710.4
2018-May-18 08:20N 55°34' W 007°02'3 9.9
2018-May-18 08:00N 55°33' W 006°56'5 9.7
2018-May-18 07:30N 55°32' W 006°48'4 8.5
2018-May-18 07:00N 55°30' W 006°41'4 9.0
2018-May-18 06:30N 55°29' W 006°33'5 9.8
2018-May-18 06:00N 55°28' W 006°25'611.4
2018-May-18 05:30N 55°26' W 006°15'611.5
2018-May-18 05:00N 55°25' W 006°05'612.0
2018-May-18 04:31N 55°21' W 005°58'714.7
2018-May-18 04:00N 55°15' W 005°51'713.4
2018-May-18 03:30N 55°09' W 005°44'612.5
2018-May-18 03:00N 55°04' W 005°38'611.6
2018-May-18 02:30N 54°59' W 005°32'611.4
2018-May-18 02:00N 54°54' W 005°27'611.1
2018-May-18 01:30N 54°50' W 005°21'510.2
2018-May-18 01:01N 54°46' W 005°16'5 9.6
2018-May-18 00:30N 54°41' W 005°12'5 9.2
2018-May-18 00:00N 54°38' W 005°07'4 8.7
2018-May-17 23:30N 54°34' W 005°05'5 9.3
2018-May-17 23:00N 54°29' W 005°03'5 9.0
2018-May-17 22:30N 54°25' W 005°02'5 9.4
2018-May-17 22:00N 54°20' W 005°02'5 9.3
2018-May-17 21:30N 54°15' W 005°02'5 9.3
2018-May-17 21:00N 54°11' W 005°01'4 8.9
2018-May-17 20:30N 54°06' W 005°00'5 9.1
2018-May-17 19:55N 54°01' W 004°59'27 9.7
2018-May-17 17:07N 53°46' W 004°21'110.9
2018-May-17 17:00N 53°46' W 004°19'611.1
2018-May-17 16:27N 53°43' W 004°10'611.4
2018-May-17 15:54N 53°40' W 004°00'512.2
2018-May-17 15:27N 53°37' W 003°52'612.1
2018-May-17 15:00N 53°35' W 003°44'611.4
2018-May-17 14:30N 53°34' W 003°35'611.0
2018-May-17 14:00N 53°34' W 003°25'2 3.7
2018-May-17 13:30N 53°34' W 003°22'0 0.2
2018-May-17 12:57N 53°33' W 003°22'0 0.1
2018-May-17 12:30N 53°33' W 003°22'0 0.2
2018-May-17 11:57N 53°34' W 003°22'0 0.1
2018-May-17 11:27N 53°34' W 003°22'0 0.0
2018-May-17 10:57N 53°34' W 003°22'0 0.0
2018-May-17 10:30N 53°34' W 003°22'0 0.0
2018-May-17 09:51N 53°34' W 003°22'0 0.0
2018-May-17 09:27N 53°34' W 003°22'0 0.0
2018-May-17 09:00N 53°34' W 003°22'0 0.0
2018-May-17 08:30N 53°34' W 003°22'0 0.1
2018-May-17 08:00N 53°34' W 003°22'0 0.3
2018-May-17 07:27N 53°34' W 003°22'0 0.1
2018-May-17 07:00N 53°34' W 003°22'0 0.0
2018-May-17 06:30N 53°34' W 003°22'0 0.0
2018-May-17 06:00N 53°34' W 003°22'0 0.0
2018-May-17 05:30N 53°34' W 003°22'0 0.0
2018-May-17 05:00N 53°34' W 003°22'0 0.0
2018-May-17 04:30N 53°34' W 003°22'0 0.0
2018-May-17 04:00N 53°34' W 003°22'0 0.0
2018-May-17 03:30N 53°34' W 003°22'0 0.0
2018-May-17 02:51N 53°34' W 003°22'0 0.0
2018-May-17 02:30N 53°34' W 003°22'0 0.0
2018-May-17 02:00N 53°34' W 003°22'0 0.0
2018-May-17 01:30N 53°34' W 003°22'1 1.2
2018-May-17 01:00N 53°33' W 003°21'4 7.4
2018-May-17 00:30N 53°32' W 003°16'510.6
2018-May-17 00:00N 53°31' W 003°07'510.4
2018-May-16 23:30N 53°27' W 003°02'4 7.9
2018-May-16 23:00N 53°23' W 003°00'1 1.6
2018-May-16 22:30N 53°23' W 002°60'0 0.0
2018-May-16 21:59N 53°23' W 002°60'0 0.0
2018-May-16 21:29N 53°23' W 002°60'0 0.0
2018-May-16 20:56N 53°23' W 002°60'0 0.0
2018-May-16 20:29N 53°23' W 002°60'0 0.0
2018-May-16 19:56N 53°23' W 002°60'0 0.0
2018-May-16 19:29N 53°23' W 002°60'0 0.0
2018-May-16 18:59N 53°23' W 002°60'0 0.0
2018-May-16 18:29N 53°23' W 002°60'0 0.0
2018-May-16 17:59N 53°23' W 002°60'0 0.0
2018-May-16 17:23N 53°23' W 002°60'0 0.0
2018-May-16 16:56N 53°23' W 002°60'0 0.0
2018-May-16 16:26N 53°23' W 002°60'0 0.0
2018-May-16 15:56N 53°23' W 002°60'0 0.0
2018-May-16 15:20N 53°23' W 002°60'0 0.0
2018-May-16 14:59N 53°23' W 002°60'0 0.0
2018-May-16 14:29N 53°23' W 002°60'0 0.0
2018-May-16 13:44N 53°23' W 002°60'0 0.0
2018-May-16 13:29N 53°23' W 002°60'0 0.0
2018-May-16 12:59N 53°23' W 002°60'0 0.0
2018-May-16 12:23N 53°23' W 002°60'0 0.0
2018-May-16 11:59N 53°23' W 002°60'0 0.0
2018-May-16 11:26N 53°23' W 002°60'0 0.0
2018-May-16 10:59N 53°23' W 002°60'0 0.0
2018-May-16 10:29N 53°23' W 002°60'0 0.0
2018-May-16 09:50N 53°23' W 002°60'0 0.0
2018-May-16 09:26N 53°23' W 002°60'0 0.0
2018-May-16 08:56N 53°23' W 002°60'0 0.0
2018-May-16 08:26N 53°23' W 002°60'0 0.0
2018-May-16 07:59N 53°23' W 002°60'0 0.0
2018-May-16 07:14N 53°23' W 002°60'0 0.0
2018-May-16 06:56N 53°23' W 002°60'0 0.0
2018-May-16 06:29N 53°23' W 002°60'0 0.0
2018-May-16 05:59N 53°23' W 002°60'0 0.0
2018-May-16 05:23N 53°23' W 002°60'0 0.0
2018-May-16 04:59N 53°23' W 002°60'0 0.0
2018-May-16 04:29N 53°23' W 002°60'0 0.0
2018-May-16 03:56N 53°23' W 002°60'0 0.0
2018-May-16 03:29N 53°23' W 002°60'0 0.0
2018-May-16 02:59N 53°23' W 002°60'0 0.0
2018-May-16 02:20N 53°23' W 002°60'0 0.0
2018-May-16 01:56N 53°23' W 002°60'0 0.0
2018-May-16 01:26N 53°23' W 002°60'0 0.0
2018-May-16 00:56N 53°23' W 002°60'0 0.0
2018-May-16 00:29N 53°23' W 002°60'0 0.0
2018-May-15 23:56N 53°23' W 002°60'0 0.0
2018-May-15 23:30N 53°23' W 002°60'2 3.1
2018-May-15 23:00N 53°24' W 003°00'3 6.4
2018-May-15 22:30N 53°27' W 003°02'4 7.4
2018-May-15 22:00N 53°30' W 003°06'4 7.7
2018-May-15 21:30N 53°31' W 003°12'5 9.4
2018-May-15 21:00N 53°31' W 003°20'4 8.9
2018-May-15 20:30N 53°31' W 003°28'2 4.8
2018-May-15 20:00N 53°32' W 003°24'1 2.1
2018-May-15 19:29N 53°32' W 003°22'1 2.4
2018-May-15 18:56N 53°34' W 003°22'0 0.2
2018-May-15 18:26N 53°34' W 003°22'0 0.2
2018-May-15 17:47N 53°34' W 003°22'0 0.6
2018-May-15 17:29N 53°34' W 003°22'0 0.2
2018-May-15 16:59N 53°34' W 003°22'0 0.0
2018-May-15 16:29N 53°34' W 003°22'0 0.1
2018-May-15 15:53N 53°34' W 003°22'0 0.0
2018-May-15 15:29N 53°34' W 003°22'0 0.0
2018-May-15 14:53N 53°34' W 003°22'0 0.0
2018-May-15 14:26N 53°34' W 003°22'0 0.0
2018-May-15 13:59N 53°34' W 003°22'0 0.0
2018-May-15 13:29N 53°34' W 003°22'0 0.0
2018-May-15 12:59N 53°34' W 003°22'0 0.0
2018-May-15 12:29N 53°34' W 003°22'0 0.1
2018-May-15 11:59N 53°34' W 003°22'0 0.0
2018-May-15 11:29N 53°34' W 003°22'0 0.2
2018-May-15 10:59N 53°34' W 003°22'0 0.2
2018-May-15 10:29N 53°34' W 003°22'0 0.1
2018-May-15 09:56N 53°34' W 003°22'0 0.0
2018-May-15 09:08N 53°34' W 003°22'0 0.1
2018-May-15 08:59N 53°34' W 003°22'0 0.0
2018-May-15 08:23N 53°34' W 003°22'0 0.0
2018-May-15 07:59N 53°34' W 003°22'0 0.0
2018-May-15 07:26N 53°34' W 003°22'0 0.0
2018-May-15 06:59N 53°34' W 003°22'0 0.0
2018-May-15 06:29N 53°34' W 003°22'0 0.0
2018-May-15 05:59N 53°34' W 003°22'0 0.3
2018-May-15 05:23N 53°34' W 003°22'0 0.2
2018-May-15 04:59N 53°34' W 003°22'0 0.1
2018-May-15 04:29N 53°34' W 003°22'0 0.0
2018-May-15 03:59N 53°34' W 003°22'0 0.0
2018-May-15 03:26N 53°34' W 003°22'0 0.0
2018-May-15 02:59N 53°34' W 003°22'0 0.0
2018-May-15 02:29N 53°34' W 003°22'0 0.1
2018-May-15 01:59N 53°34' W 003°22'0 0.0
2018-May-15 01:29N 53°34' W 003°22'0 0.0
2018-May-15 00:59N 53°34' W 003°22'0 0.0
2018-May-15 00:29N 53°34' W 003°22'0 0.1
2018-May-14 23:59N 53°34' W 003°22'0 0.4
2018-May-14 23:26N 53°34' W 003°22'0 0.1
2018-May-14 22:56N 53°34' W 003°22'0 0.0
2018-May-14 22:26N 53°34' W 003°22'0 0.0
2018-May-14 21:59N 53°34' W 003°22'0 0.0
2018-May-14 21:29N 53°34' W 003°22'0 0.0
2018-May-14 20:59N 53°34' W 003°22'0 0.0
2018-May-14 20:29N 53°34' W 003°22'0 0.0
2018-May-14 19:59N 53°34' W 003°22'0 0.0
2018-May-14 19:29N 53°34' W 003°22'0 0.0
2018-May-14 18:59N 53°34' W 003°22'0 0.0
2018-May-14 18:29N 53°34' W 003°22'0 0.0
2018-May-14 17:59N 53°34' W 003°22'0 0.3
2018-May-14 17:29N 53°34' W 003°22'0 0.2
2018-May-14 16:53N 53°34' W 003°22'0 0.1
2018-May-14 16:29N 53°34' W 003°22'0 0.0
2018-May-14 15:56N 53°34' W 003°22'0 0.0
2018-May-14 15:26N 53°34' W 003°22'0 0.0
2018-May-14 14:56N 53°34' W 003°22'0 0.0
2018-May-14 14:26N 53°34' W 003°22'0 0.0
2018-May-14 13:59N 53°34' W 003°22'0 0.0
2018-May-14 13:29N 53°34' W 003°22'0 0.0
2018-May-14 12:59N 53°34' W 003°22'0 0.0
2018-May-14 12:29N 53°34' W 003°22'0 0.0
2018-May-14 11:59N 53°34' W 003°22'0 0.2
2018-May-14 11:29N 53°34' W 003°22'0 0.3
2018-May-14 10:59N 53°34' W 003°22'0 0.2
2018-May-14 10:29N 53°34' W 003°22'0 0.1
2018-May-14 09:59N 53°34' W 003°22'0 0.1
2018-May-14 09:29N 53°34' W 003°22'0 0.0
2018-May-14 08:59N 53°34' W 003°22'0 0.1
2018-May-14 08:29N 53°34' W 003°22'0 0.0
2018-May-14 07:59N 53°34' W 003°22'0 0.0
2018-May-14 07:20N 53°34' W 003°22'0 0.0
2018-May-14 06:59N 53°34' W 003°22'0 0.1
2018-May-14 06:29N 53°34' W 003°22'0 0.0
2018-May-14 05:59N 53°34' W 003°22'0 0.0
2018-May-14 05:29N 53°34' W 003°22'0 0.2
2018-May-14 04:59N 53°34' W 003°22'0 0.2
2018-May-14 04:29N 53°34' W 003°22'0 0.1
2018-May-14 03:59N 53°34' W 003°22'0 0.1
2018-May-14 03:29N 53°34' W 003°22'0 0.0
2018-May-14 02:59N 53°34' W 003°22'0 0.0
2018-May-14 02:29N 53°34' W 003°22'0 0.1
2018-May-14 01:59N 53°34' W 003°22'0 0.1
2018-May-14 01:29N 53°34' W 003°22'0 0.0
2018-May-14 00:59N 53°34' W 003°22'0 0.0
2018-May-14 00:29N 53°34' W 003°22'0 0.0
2018-May-13 23:59N 53°34' W 003°22'0 0.0
2018-May-13 23:29N 53°34' W 003°22'0 0.1
2018-May-13 22:59N 53°34' W 003°22'0 0.2
2018-May-13 22:29N 53°34' W 003°22'0 0.2
2018-May-13 21:59N 53°34' W 003°22'0 0.1
2018-May-13 21:23N 53°34' W 003°22'0 0.0
2018-May-13 20:59N 53°34' W 003°22'0 0.1
2018-May-13 20:29N 53°34' W 003°22'0 0.0
2018-May-13 19:59N 53°34' W 003°22'0 0.0
2018-May-13 19:29N 53°34' W 003°22'0 0.0
2018-May-13 18:59N 53°34' W 003°22'0 0.0
2018-May-13 18:29N 53°34' W 003°22'0 0.0
2018-May-13 17:59N 53°34' W 003°22'0 0.0
2018-May-13 17:29N 53°34' W 003°22'0 0.0
2018-May-13 16:53N 53°34' W 003°22'0 0.2
2018-May-13 16:29N 53°34' W 003°22'0 0.2
2018-May-13 15:59N 53°34' W 003°22'0 0.1
2018-May-13 15:29N 53°34' W 003°22'0 0.0
2018-May-13 14:59N 53°34' W 003°22'0 0.0
2018-May-13 14:29N 53°34' W 003°22'0 0.0
2018-May-13 13:59N 53°34' W 003°22'0 0.0
2018-May-13 13:29N 53°34' W 003°22'0 0.0
2018-May-13 12:59N 53°34' W 003°22'0 0.0
2018-May-13 12:29N 53°34' W 003°22'0 0.1
2018-May-13 11:59N 53°34' W 003°22'0 0.1
2018-May-13 11:29N 53°34' W 003°22'0 0.2
2018-May-13 10:59N 53°34' W 003°22'0 0.1
2018-May-13 10:29N 53°34' W 003°22'0 0.1
2018-May-13 09:59N 53°34' W 003°22'0 0.0
2018-May-13 09:23N 53°34' W 003°22'0 0.1
2018-May-13 08:59N 53°34' W 003°22'0 0.0
2018-May-13 08:29N 53°34' W 003°22'0 0.0
2018-May-13 07:47N 53°34' W 003°22'0 0.0
2018-May-13 07:29N 53°34' W 003°22'0 0.0
2018-May-13 06:59N 53°34' W 003°22'0 0.0
2018-May-13 06:29N 53°34' W 003°22'0 0.0
2018-May-13 05:59N 53°34' W 003°22'0 0.0
2018-May-13 05:29N 53°34' W 003°22'0 0.1
2018-May-13 04:56N 53°34' W 003°22'0 0.1
2018-May-13 04:29N 53°34' W 003°22'0 0.2
2018-May-13 03:59N 53°34' W 003°22'0 0.1
2018-May-13 03:29N 53°34' W 003°22'0 0.0
2018-May-13 02:59N 53°34' W 003°22'0 0.0
2018-May-13 02:29N 53°34' W 003°22'0 0.1
2018-May-13 01:59N 53°34' W 003°22'0 0.0
2018-May-13 01:29N 53°34' W 003°22'0 0.0
2018-May-13 00:59N 53°34' W 003°22'0 0.0
2018-May-13 00:29N 53°34' W 003°22'0 0.1
2018-May-12 23:59N 53°34' W 003°22'0 0.0
2018-May-12 23:29N 53°34' W 003°22'0 0.0
2018-May-12 22:59N 53°34' W 003°22'0 0.2
2018-May-12 22:29N 53°34' W 003°22'0 0.4
2018-May-12 21:59N 53°34' W 003°22'0 0.1
2018-May-12 21:29N 53°34' W 003°22'0 0.0
2018-May-12 20:59N 53°34' W 003°22'0 0.0
2018-May-12 20:23N 53°34' W 003°22'0 0.0
2018-May-12 19:59N 53°34' W 003°22'0 0.0
2018-May-12 19:30N 53°34' W 003°22'1 1.5
2018-May-12 19:00N 53°33' W 003°21'3 5.4
2018-May-12 18:30N 53°32' W 003°17'5 9.8
2018-May-12 18:00N 53°32' W 003°09'510.9
2018-May-12 17:30N 53°28' W 003°03'510.0
2018-May-12 17:00N 53°23' W 002°60'0 0.5
2018-May-12 16:25N 53°23' W 002°60'0 0.0
2018-May-12 15:58N 53°23' W 002°60'0 0.0
2018-May-12 15:22N 53°23' W 002°60'0 0.0
2018-May-12 14:58N 53°23' W 002°60'0 0.0
2018-May-12 14:28N 53°23' W 002°60'0 0.0
2018-May-12 13:58N 53°23' W 002°60'0 0.0
2018-May-12 13:25N 53°23' W 002°60'0 0.0
2018-May-12 12:58N 53°23' W 002°60'0 0.0
2018-May-12 12:28N 53°23' W 002°60'0 0.0
2018-May-12 11:58N 53°23' W 002°60'0 0.0
2018-May-12 11:25N 53°23' W 002°60'0 0.0
2018-May-12 10:58N 53°23' W 002°60'0 0.0
2018-May-12 10:28N 53°23' W 002°60'0 0.0
2018-May-12 09:58N 53°23' W 002°60'0 0.0
2018-May-12 09:28N 53°23' W 002°60'0 0.0
2018-May-12 08:58N 53°23' W 002°60'0 0.0
2018-May-12 08:28N 53°23' W 002°60'0 0.0
2018-May-12 07:55N 53°23' W 002°60'0 0.0
2018-May-12 07:25N 53°23' W 002°60'0 0.0
2018-May-12 06:55N 53°23' W 002°60'0 0.0
2018-May-12 06:28N 53°23' W 002°60'0 0.0
2018-May-12 05:58N 53°23' W 002°60'0 0.0
2018-May-12 05:28N 53°23' W 002°60'0 0.0
2018-May-12 04:58N 53°23' W 002°60'0 0.0
2018-May-12 04:25N 53°23' W 002°60'0 0.0
2018-May-12 03:58N 53°23' W 002°60'0 0.0
2018-May-12 03:28N 53°23' W 002°60'0 0.0
2018-May-12 02:55N 53°23' W 002°60'0 0.0
2018-May-12 02:25N 53°23' W 002°60'0 0.0
2018-May-12 01:58N 53°23' W 002°60'0 0.0
2018-May-12 01:28N 53°23' W 002°60'0 0.0
2018-May-12 00:58N 53°23' W 002°60'0 0.0
2018-May-12 00:28N 53°23' W 002°60'0 0.0
2018-May-11 23:58N 53°23' W 002°60'0 0.0
2018-May-11 23:28N 53°23' W 002°60'0 0.0
2018-May-11 22:58N 53°23' W 002°60'0 0.0
2018-May-11 22:25N 53°23' W 002°60'0 0.0
2018-May-11 21:58N 53°23' W 002°60'0 0.0
2018-May-11 21:28N 53°23' W 002°60'0 0.0
2018-May-11 20:52N 53°23' W 002°60'0 0.0
2018-May-11 20:28N 53°23' W 002°60'0 0.0
2018-May-11 19:58N 53°23' W 002°60'0 0.0
2018-May-11 19:25N 53°23' W 002°60'0 0.0
2018-May-11 18:58N 53°23' W 002°60'0 0.0
2018-May-11 18:22N 53°23' W 002°60'0 0.0
2018-May-11 17:58N 53°23' W 002°60'0 0.0
2018-May-11 17:28N 53°23' W 002°60'0 0.0
2018-May-11 16:58N 53°23' W 002°60'0 0.0
2018-May-11 16:22N 53°23' W 002°60'0 0.0
2018-May-11 15:31N 53°23' W 002°60'0 0.0
2018-May-11 15:25N 53°23' W 002°60'0 0.0
2018-May-11 14:40N 53°23' W 002°60'0 0.0
2018-May-11 14:28N 53°23' W 002°60'0 0.0
2018-May-11 13:49N 53°23' W 002°60'0 0.0
2018-May-11 13:28N 53°23' W 002°60'0 0.0
2018-May-11 12:58N 53°23' W 002°60'0 0.0
2018-May-11 12:28N 53°23' W 002°60'0 0.0
2018-May-11 11:58N 53°23' W 002°60'0 0.0
2018-May-11 11:28N 53°23' W 002°60'0 0.0
2018-May-11 10:58N 53°23' W 002°60'0 0.0
2018-May-11 10:28N 53°23' W 002°60'0 0.0
2018-May-11 09:55N 53°23' W 002°60'0 0.0
2018-May-11 09:25N 53°23' W 002°60'0 0.0
2018-May-11 08:58N 53°23' W 002°60'0 0.0
2018-May-11 08:25N 53°23' W 002°60'0 0.0
2018-May-11 07:55N 53°23' W 002°60'0 0.0
2018-May-11 07:28N 53°23' W 002°60'0 0.0
2018-May-11 06:58N 53°23' W 002°60'0 0.0
2018-May-11 06:28N 53°23' W 002°60'0 0.0
2018-May-11 05:55N 53°23' W 002°60'0 0.0
2018-May-11 05:28N 53°23' W 002°60'0 0.0
2018-May-11 04:58N 53°23' W 002°60'0 0.0
2018-May-11 04:28N 53°23' W 002°60'0 0.0
2018-May-11 03:58N 53°23' W 002°60'0 0.0
2018-May-11 03:25N 53°23' W 002°60'0 0.0
2018-May-11 02:55N 53°23' W 002°60'0 0.0
2018-May-11 02:28N 53°23' W 002°60'0 0.0
2018-May-11 01:58N 53°23' W 002°60'0 0.0
2018-May-11 01:25N 53°23' W 002°60'0 0.0
2018-May-11 00:58N 53°23' W 002°60'0 0.0
2018-May-11 00:28N 53°23' W 002°60'0 0.0
2018-May-10 23:58N 53°23' W 002°60'0 0.0
2018-May-10 23:28N 53°23' W 002°60'0 0.0
2018-May-10 22:58N 53°23' W 002°60'0 0.0
2018-May-10 22:25N 53°23' W 002°60'0 0.0
2018-May-10 21:52N 53°23' W 002°60'0 0.0
2018-May-10 21:25N 53°23' W 002°60'0 0.0
2018-May-10 20:58N 53°23' W 002°60'0 0.0
2018-May-10 20:28N 53°23' W 002°60'0 0.0
2018-May-10 20:00N 53°23' W 002°60'0 0.3
2018-May-10 19:30N 53°23' W 002°60'2 4.5
2018-May-10 19:00N 53°25' W 003°01'4 8.8
2018-May-10 18:30N 53°29' W 003°05'5 9.1
2018-May-10 18:00N 53°32' W 003°10'5 9.3
2018-May-10 17:30N 53°31' W 003°18'611.3
2018-May-10 17:00N 53°31' W 003°28'  
Track history (hours):
 
Tides and Currents Weather Stations Pressure Air Temp Water Temp Dewpoint Dewpoint Depression Visibility Wind Speed Wind Dir Waves Ship Positions

Minerva Roxanne

Last reported at 2018-May-20 16:47 UTC. Time now 2018-May-20 17:54 UTC.
Position N 57°26' E 005°54'.

Length 243 m; draft 8.2 m.

Type: Ship. MMSI: 240198000.

Date/timePositionNaut miles runAvg speedWind from/ knotsBaromVisibWave heightAir tempDewpointWater temp
2018-May-20 16:47N 57°26' E 005°54'411.2
2018-May-20 16:25N 57°26' E 005°46'511.3
2018-May-20 16:00N 57°26' E 005°37'611.6
2018-May-20 15:29N 57°25' E 005°26'611.7
2018-May-20 14:58N 57°24' E 005°15'611.6
2018-May-20 14:28N 57°26' E 005°05'711.8
2018-May-20 13:53N 57°29' E 004°53'911.9
2018-May-20 13:07N 57°33' E 004°38'211.9
2018-May-20 12:58N 57°34' E 004°35'1211.7
2018-May-20 11:56N 57°38' E 004°14'811.5
2018-May-20 11:16N 57°41' E 004°01'1111.4
2018-May-20 10:19N 57°46' E 003°42'511.3
2018-May-20 09:51N 57°48' E 003°33'611.3
2018-May-20 09:22N 57°50' E 003°24'411.3
2018-May-20 09:00N 57°52' E 003°17'611.3
2018-May-20 08:30N 57°54' E 003°07'611.2
2018-May-20 07:59N 57°57' E 002°57'511.3
2018-May-20 07:30N 57°58' E 002°48'611.2
2018-May-20 06:59N 58°01' E 002°38'511.3
2018-May-20 06:30N 58°03' E 002°28'811.4
2018-May-20 05:47N 58°06' E 002°14'311.4
2018-May-20 05:30N 58°08' E 002°09'711.4
2018-May-20 04:56N 58°10' E 001°57'511.4
2018-May-20 04:30N 58°12' E 001°49'911.5
2018-May-20 03:46N 58°16' E 001°34'311.5
2018-May-20 03:29N 58°17' E 001°28'1511.5
2018-May-20 02:12N 58°23' E 001°03'311.4
2018-May-20 01:59N 58°24' E 000°58'611.5
2018-May-20 01:27N 58°26' E 000°47'511.2
2018-May-20 00:58N 58°29' E 000°38'611.3
2018-May-20 00:28N 58°31' E 000°28'510.8
2018-May-19 23:59N 58°33' E 000°20'304 8.1
2018-May-18 10:18N 55°46' W 007°28'411.2
2018-May-18 09:59N 55°43' W 007°26'610.7
2018-May-18 09:27N 55°38' W 007°21'510.7
2018-May-18 09:00N 55°36' W 007°13'710.4
2018-May-18 08:20N 55°34' W 007°02'3 9.9
2018-May-18 08:00N 55°33' W 006°56'5 9.7
2018-May-18 07:30N 55°32' W 006°48'4 8.5
2018-May-18 07:00N 55°30' W 006°41'4 9.0
2018-May-18 06:30N 55°29' W 006°33'5 9.8
2018-May-18 06:00N 55°28' W 006°25'611.4
2018-May-18 05:30N 55°26' W 006°15'611.5
2018-May-18 05:00N 55°25' W 006°05'612.0
2018-May-18 04:31N 55°21' W 005°58'714.7
2018-May-18 04:00N 55°15' W 005°51'713.4
2018-May-18 03:30N 55°09' W 005°44'612.5
2018-May-18 03:00N 55°04' W 005°38'611.6
2018-May-18 02:30N 54°59' W 005°32'611.4
2018-May-18 02:00N 54°54' W 005°27'611.1
2018-May-18 01:30N 54°50' W 005°21'510.2
2018-May-18 01:01N 54°46' W 005°16'5 9.6
2018-May-18 00:30N 54°41' W 005°12'5 9.2
2018-May-18 00:00N 54°38' W 005°07'4 8.7
2018-May-17 23:30N 54°34' W 005°05'5 9.3
2018-May-17 23:00N 54°29' W 005°03'5 9.0
2018-May-17 22:30N 54°25' W 005°02'5 9.4
2018-May-17 22:00N 54°20' W 005°02'5 9.3
2018-May-17 21:30N 54°15' W 005°02'5 9.3
2018-May-17 21:00N 54°11' W 005°01'4 8.9
2018-May-17 20:30N 54°06' W 005°00'5 9.1
2018-May-17 19:55N 54°01' W 004°59'27 9.7
2018-May-17 17:07N 53°46' W 004°21'110.9
2018-May-17 17:00N 53°46' W 004°19'611.1
2018-May-17 16:27N 53°43' W 004°10'611.4
2018-May-17 15:54N 53°40' W 004°00'512.2
2018-May-17 15:27N 53°37' W 003°52'612.1
2018-May-17 15:00N 53°35' W 003°44'611.4
2018-May-17 14:30N 53°34' W 003°35'611.0
2018-May-17 14:00N 53°34' W 003°25'2 3.7
2018-May-17 13:30N 53°34' W 003°22'0 0.2
2018-May-17 12:57N 53°33' W 003°22'0 0.1
2018-May-17 12:30N 53°33' W 003°22'0 0.2
2018-May-17 11:57N 53°34' W 003°22'0 0.1
2018-May-17 11:27N 53°34' W 003°22'0 0.0
2018-May-17 10:57N 53°34' W 003°22'0 0.0
2018-May-17 10:30N 53°34' W 003°22'0 0.0
2018-May-17 09:51N 53°34' W 003°22'0 0.0
2018-May-17 09:27N 53°34' W 003°22'0 0.0
2018-May-17 09:00N 53°34' W 003°22'0 0.0
2018-May-17 08:30N 53°34' W 003°22'0 0.1
2018-May-17 08:00N 53°34' W 003°22'0 0.3
2018-May-17 07:27N 53°34' W 003°22'0 0.1
2018-May-17 07:00N 53°34' W 003°22'0 0.0
2018-May-17 06:30N 53°34' W 003°22'0 0.0
2018-May-17 06:00N 53°34' W 003°22'0 0.0
2018-May-17 05:30N 53°34' W 003°22'0 0.0
2018-May-17 05:00N 53°34' W 003°22'0 0.0
2018-May-17 04:30N 53°34' W 003°22'0 0.0
2018-May-17 04:00N 53°34' W 003°22'0 0.0
2018-May-17 03:30N 53°34' W 003°22'0 0.0
2018-May-17 02:51N 53°34' W 003°22'0 0.0
2018-May-17 02:30N 53°34' W 003°22'0 0.0
2018-May-17 02:00N 53°34' W 003°22'0 0.0
2018-May-17 01:30N 53°34' W 003°22'1 1.2
2018-May-17 01:00N 53°33' W 003°21'4 7.4
2018-May-17 00:30N 53°32' W 003°16'510.6
2018-May-17 00:00N 53°31' W 003°07'510.4
2018-May-16 23:30N 53°27' W 003°02'4 7.9
2018-May-16 23:00N 53°23' W 003°00'1 1.6
2018-May-16 22:30N 53°23' W 002°60'0 0.0
2018-May-16 21:59N 53°23' W 002°60'0 0.0
2018-May-16 21:29N 53°23' W 002°60'0 0.0
2018-May-16 20:56N 53°23' W 002°60'0 0.0
2018-May-16 20:29N 53°23' W 002°60'0 0.0
2018-May-16 19:56N 53°23' W 002°60'0 0.0
2018-May-16 19:29N 53°23' W 002°60'0 0.0
2018-May-16 18:59N 53°23' W 002°60'0 0.0
2018-May-16 18:29N 53°23' W 002°60'0 0.0
2018-May-16 17:59N 53°23' W 002°60'0 0.0
2018-May-16 17:23N 53°23' W 002°60'0 0.0
2018-May-16 16:56N 53°23' W 002°60'0 0.0
2018-May-16 16:26N 53°23' W 002°60'0 0.0
2018-May-16 15:56N 53°23' W 002°60'0 0.0
2018-May-16 15:20N 53°23' W 002°60'0 0.0
2018-May-16 14:59N 53°23' W 002°60'0 0.0
2018-May-16 14:29N 53°23' W 002°60'0 0.0
2018-May-16 13:44N 53°23' W 002°60'0 0.0
2018-May-16 13:29N 53°23' W 002°60'0 0.0
2018-May-16 12:59N 53°23' W 002°60'0 0.0
2018-May-16 12:23N 53°23' W 002°60'0 0.0
2018-May-16 11:59N 53°23' W 002°60'0 0.0
2018-May-16 11:26N 53°23' W 002°60'0 0.0
2018-May-16 10:59N 53°23' W 002°60'0 0.0
2018-May-16 10:29N 53°23' W 002°60'0 0.0
2018-May-16 09:50N 53°23' W 002°60'0 0.0
2018-May-16 09:26N 53°23' W 002°60'0 0.0
2018-May-16 08:56N 53°23' W 002°60'0 0.0
2018-May-16 08:26N 53°23' W 002°60'0 0.0
2018-May-16 07:59N 53°23' W 002°60'0 0.0
2018-May-16 07:14N 53°23' W 002°60'0 0.0
2018-May-16 06:56N 53°23' W 002°60'0 0.0
2018-May-16 06:29N 53°23' W 002°60'0 0.0
2018-May-16 05:59N 53°23' W 002°60'0 0.0
2018-May-16 05:23N 53°23' W 002°60'0 0.0
2018-May-16 04:59N 53°23' W 002°60'0 0.0
2018-May-16 04:29N 53°23' W 002°60'0 0.0
2018-May-16 03:56N 53°23' W 002°60'0 0.0
2018-May-16 03:29N 53°23' W 002°60'0 0.0
2018-May-16 02:59N 53°23' W 002°60'0 0.0
2018-May-16 02:20N 53°23' W 002°60'0 0.0
2018-May-16 01:56N 53°23' W 002°60'0 0.0
2018-May-16 01:26N 53°23' W 002°60'0 0.0
2018-May-16 00:56N 53°23' W 002°60'0 0.0
2018-May-16 00:29N 53°23' W 002°60'0 0.0
2018-May-15 23:56N 53°23' W 002°60'0 0.0
2018-May-15 23:30N 53°23' W 002°60'2 3.1
2018-May-15 23:00N 53°24' W 003°00'3 6.4
2018-May-15 22:30N 53°27' W 003°02'4 7.4
2018-May-15 22:00N 53°30' W 003°06'4 7.7
2018-May-15 21:30N 53°31' W 003°12'5 9.4
2018-May-15 21:00N 53°31' W 003°20'4 8.9
2018-May-15 20:30N 53°31' W 003°28'2 4.8
2018-May-15 20:00N 53°32' W 003°24'1 2.1
2018-May-15 19:29N 53°32' W 003°22'1 2.4
2018-May-15 18:56N 53°34' W 003°22'0 0.2
2018-May-15 18:26N 53°34' W 003°22'0 0.2
2018-May-15 17:47N 53°34' W 003°22'0 0.6
2018-May-15 17:29N 53°34' W 003°22'0 0.2
2018-May-15 16:59N 53°34' W 003°22'0 0.0
2018-May-15 16:29N 53°34' W 003°22'0 0.1
2018-May-15 15:53N 53°34' W 003°22'0 0.0
2018-May-15 15:29N 53°34' W 003°22'0 0.0
2018-May-15 14:53N 53°34' W 003°22'0 0.0
2018-May-15 14:26N 53°34' W 003°22'0 0.0
2018-May-15 13:59N 53°34' W 003°22'0 0.0
2018-May-15 13:29N 53°34' W 003°22'0 0.0
2018-May-15 12:59N 53°34' W 003°22'0 0.0
2018-May-15 12:29N 53°34' W 003°22'0 0.1
2018-May-15 11:59N 53°34' W 003°22'0 0.0
2018-May-15 11:29N 53°34' W 003°22'0 0.2
2018-May-15 10:59N 53°34' W 003°22'0 0.2
2018-May-15 10:29N 53°34' W 003°22'0 0.1
2018-May-15 09:56N 53°34' W 003°22'0 0.0
2018-May-15 09:08N 53°34' W 003°22'0 0.1
2018-May-15 08:59N 53°34' W 003°22'0 0.0
2018-May-15 08:23N 53°34' W 003°22'0 0.0
2018-May-15 07:59N 53°34' W 003°22'0 0.0
2018-May-15 07:26N 53°34' W 003°22'0 0.0
2018-May-15 06:59N 53°34' W 003°22'0 0.0
2018-May-15 06:29N 53°34' W 003°22'0 0.0
2018-May-15 05:59N 53°34' W 003°22'0 0.3
2018-May-15 05:23N 53°34' W 003°22'0 0.2
2018-May-15 04:59N 53°34' W 003°22'0 0.1
2018-May-15 04:29N 53°34' W 003°22'0 0.0
2018-May-15 03:59N 53°34' W 003°22'0 0.0
2018-May-15 03:26N 53°34' W 003°22'0 0.0
2018-May-15 02:59N 53°34' W 003°22'0 0.0
2018-May-15 02:29N 53°34' W 003°22'0 0.1
2018-May-15 01:59N 53°34' W 003°22'0 0.0
2018-May-15 01:29N 53°34' W 003°22'0 0.0
2018-May-15 00:59N 53°34' W 003°22'0 0.0
2018-May-15 00:29N 53°34' W 003°22'0 0.1
2018-May-14 23:59N 53°34' W 003°22'0 0.4
2018-May-14 23:26N 53°34' W 003°22'0 0.1
2018-May-14 22:56N 53°34' W 003°22'0 0.0
2018-May-14 22:26N 53°34' W 003°22'0 0.0
2018-May-14 21:59N 53°34' W 003°22'0 0.0
2018-May-14 21:29N 53°34' W 003°22'0 0.0
2018-May-14 20:59N 53°34' W 003°22'0 0.0
2018-May-14 20:29N 53°34' W 003°22'0 0.0
2018-May-14 19:59N 53°34' W 003°22'0 0.0
2018-May-14 19:29N 53°34' W 003°22'0 0.0
2018-May-14 18:59N 53°34' W 003°22'0 0.0
2018-May-14 18:29N 53°34' W 003°22'0 0.0
2018-May-14 17:59N 53°34' W 003°22'0 0.3
2018-May-14 17:29N 53°34' W 003°22'0 0.2
2018-May-14 16:53N 53°34' W 003°22'0 0.1
2018-May-14 16:29N 53°34' W 003°22'0 0.0
2018-May-14 15:56N 53°34' W 003°22'0 0.0
2018-May-14 15:26N 53°34' W 003°22'0 0.0
2018-May-14 14:56N 53°34' W 003°22'0 0.0
2018-May-14 14:26N 53°34' W 003°22'0 0.0
2018-May-14 13:59N 53°34' W 003°22'0 0.0
2018-May-14 13:29N 53°34' W 003°22'0 0.0
2018-May-14 12:59N 53°34' W 003°22'0 0.0
2018-May-14 12:29N 53°34' W 003°22'0 0.0
2018-May-14 11:59N 53°34' W 003°22'0 0.2
2018-May-14 11:29N 53°34' W 003°22'0 0.3
2018-May-14 10:59N 53°34' W 003°22'0 0.2
2018-May-14 10:29N 53°34' W 003°22'0 0.1
2018-May-14 09:59N 53°34' W 003°22'0 0.1
2018-May-14 09:29N 53°34' W 003°22'0 0.0
2018-May-14 08:59N 53°34' W 003°22'0 0.1
2018-May-14 08:29N 53°34' W 003°22'0 0.0
2018-May-14 07:59N 53°34' W 003°22'0 0.0
2018-May-14 07:20N 53°34' W 003°22'0 0.0
2018-May-14 06:59N 53°34' W 003°22'0 0.1
2018-May-14 06:29N 53°34' W 003°22'0 0.0
2018-May-14 05:59N 53°34' W 003°22'0 0.0
2018-May-14 05:29N 53°34' W 003°22'0 0.2
2018-May-14 04:59N 53°34' W 003°22'0 0.2
2018-May-14 04:29N 53°34' W 003°22'0 0.1
2018-May-14 03:59N 53°34' W 003°22'0 0.1
2018-May-14 03:29N 53°34' W 003°22'0 0.0
2018-May-14 02:59N 53°34' W 003°22'0 0.0
2018-May-14 02:29N 53°34' W 003°22'0 0.1
2018-May-14 01:59N 53°34' W 003°22'0 0.1
2018-May-14 01:29N 53°34' W 003°22'0 0.0
2018-May-14 00:59N 53°34' W 003°22'0 0.0
2018-May-14 00:29N 53°34' W 003°22'0 0.0
2018-May-13 23:59N 53°34' W 003°22'0 0.0
2018-May-13 23:29N 53°34' W 003°22'0 0.1
2018-May-13 22:59N 53°34' W 003°22'0 0.2
2018-May-13 22:29N 53°34' W 003°22'0 0.2
2018-May-13 21:59N 53°34' W 003°22'0 0.1
2018-May-13 21:23N 53°34' W 003°22'0 0.0
2018-May-13 20:59N 53°34' W 003°22'0 0.1
2018-May-13 20:29N 53°34' W 003°22'0 0.0
2018-May-13 19:59N 53°34' W 003°22'0 0.0
2018-May-13 19:29N 53°34' W 003°22'0 0.0
2018-May-13 18:59N 53°34' W 003°22'0 0.0
2018-May-13 18:29N 53°34' W 003°22'0 0.0
2018-May-13 17:59N 53°34' W 003°22'0 0.0
2018-May-13 17:29N 53°34' W 003°22'0 0.0
2018-May-13 16:53N 53°34' W 003°22'0 0.2
2018-May-13 16:29N 53°34' W 003°22'0 0.2
2018-May-13 15:59N 53°34' W 003°22'0 0.1
2018-May-13 15:29N 53°34' W 003°22'0 0.0
2018-May-13 14:59N 53°34' W 003°22'0 0.0
2018-May-13 14:29N 53°34' W 003°22'0 0.0
2018-May-13 13:59N 53°34' W 003°22'0 0.0
2018-May-13 13:29N 53°34' W 003°22'0 0.0
2018-May-13 12:59N 53°34' W 003°22'0 0.0
2018-May-13 12:29N 53°34' W 003°22'0 0.1
2018-May-13 11:59N 53°34' W 003°22'0 0.1
2018-May-13 11:29N 53°34' W 003°22'0 0.2
2018-May-13 10:59N 53°34' W 003°22'0 0.1
2018-May-13 10:29N 53°34' W 003°22'0 0.1
2018-May-13 09:59N 53°34' W 003°22'0 0.0
2018-May-13 09:23N 53°34' W 003°22'0 0.1
2018-May-13 08:59N 53°34' W 003°22'0 0.0
2018-May-13 08:29N 53°34' W 003°22'0 0.0
2018-May-13 07:47N 53°34' W 003°22'0 0.0
2018-May-13 07:29N 53°34' W 003°22'0 0.0
2018-May-13 06:59N 53°34' W 003°22'0 0.0
2018-May-13 06:29N 53°34' W 003°22'0 0.0
2018-May-13 05:59N 53°34' W 003°22'0 0.0
2018-May-13 05:29N 53°34' W 003°22'0 0.1
2018-May-13 04:56N 53°34' W 003°22'0 0.1
2018-May-13 04:29N 53°34' W 003°22'0 0.2
2018-May-13 03:59N 53°34' W 003°22'0 0.1
2018-May-13 03:29N 53°34' W 003°22'0 0.0
2018-May-13 02:59N 53°34' W 003°22'0 0.0
2018-May-13 02:29N 53°34' W 003°22'0 0.1
2018-May-13 01:59N 53°34' W 003°22'0 0.0
2018-May-13 01:29N 53°34' W 003°22'0 0.0
2018-May-13 00:59N 53°34' W 003°22'0 0.0
2018-May-13 00:29N 53°34' W 003°22'0 0.1
2018-May-12 23:59N 53°34' W 003°22'0 0.0
2018-May-12 23:29N 53°34' W 003°22'0 0.0
2018-May-12 22:59N 53°34' W 003°22'0 0.2
2018-May-12 22:29N 53°34' W 003°22'0 0.4
2018-May-12 21:59N 53°34' W 003°22'0 0.1
2018-May-12 21:29N 53°34' W 003°22'0 0.0
2018-May-12 20:59N 53°34' W 003°22'0 0.0
2018-May-12 20:23N 53°34' W 003°22'0 0.0
2018-May-12 19:59N 53°34' W 003°22'0 0.0
2018-May-12 19:30N 53°34' W 003°22'1 1.5
2018-May-12 19:00N 53°33' W 003°21'3 5.4
2018-May-12 18:30N 53°32' W 003°17'5 9.8
2018-May-12 18:00N 53°32' W 003°09'510.9
2018-May-12 17:30N 53°28' W 003°03'510.0
2018-May-12 17:00N 53°23' W 002°60'0 0.5
2018-May-12 16:25N 53°23' W 002°60'0 0.0
2018-May-12 15:58N 53°23' W 002°60'0 0.0
2018-May-12 15:22N 53°23' W 002°60'0 0.0
2018-May-12 14:58N 53°23' W 002°60'0 0.0
2018-May-12 14:28N 53°23' W 002°60'0 0.0
2018-May-12 13:58N 53°23' W 002°60'0 0.0
2018-May-12 13:25N 53°23' W 002°60'0 0.0
2018-May-12 12:58N 53°23' W 002°60'0 0.0
2018-May-12 12:28N 53°23' W 002°60'0 0.0
2018-May-12 11:58N 53°23' W 002°60'0 0.0
2018-May-12 11:25N 53°23' W 002°60'0 0.0
2018-May-12 10:58N 53°23' W 002°60'0 0.0
2018-May-12 10:28N 53°23' W 002°60'0 0.0
2018-May-12 09:58N 53°23' W 002°60'0 0.0
2018-May-12 09:28N 53°23' W 002°60'0 0.0
2018-May-12 08:58N 53°23' W 002°60'0 0.0
2018-May-12 08:28N 53°23' W 002°60'0 0.0
2018-May-12 07:55N 53°23' W 002°60'0 0.0
2018-May-12 07:25N 53°23' W 002°60'0 0.0
2018-May-12 06:55N 53°23' W 002°60'0 0.0
2018-May-12 06:28N 53°23' W 002°60'0 0.0
2018-May-12 05:58N 53°23' W 002°60'0 0.0
2018-May-12 05:28N 53°23' W 002°60'0 0.0
2018-May-12 04:58N 53°23' W 002°60'0 0.0
2018-May-12 04:25N 53°23' W 002°60'0 0.0
2018-May-12 03:58N 53°23' W 002°60'0 0.0
2018-May-12 03:28N 53°23' W 002°60'0 0.0
2018-May-12 02:55N 53°23' W 002°60'0 0.0
2018-May-12 02:25N 53°23' W 002°60'0 0.0
2018-May-12 01:58N 53°23' W 002°60'0 0.0
2018-May-12 01:28N 53°23' W 002°60'0 0.0
2018-May-12 00:58N 53°23' W 002°60'0 0.0
2018-May-12 00:28N 53°23' W 002°60'0 0.0
2018-May-11 23:58N 53°23' W 002°60'0 0.0
2018-May-11 23:28N 53°23' W 002°60'0 0.0
2018-May-11 22:58N 53°23' W 002°60'0 0.0
2018-May-11 22:25N 53°23' W 002°60'0 0.0
2018-May-11 21:58N 53°23' W 002°60'0 0.0
2018-May-11 21:28N 53°23' W 002°60'0 0.0
2018-May-11 20:52N 53°23' W 002°60'0 0.0
2018-May-11 20:28N 53°23' W 002°60'0 0.0
2018-May-11 19:58N 53°23' W 002°60'0 0.0
2018-May-11 19:25N 53°23' W 002°60'0 0.0
2018-May-11 18:58N 53°23' W 002°60'0 0.0
2018-May-11 18:22N 53°23' W 002°60'0 0.0
2018-May-11 17:58N 53°23' W 002°60'0 0.0
2018-May-11 17:28N 53°23' W 002°60'0 0.0
2018-May-11 16:58N 53°23' W 002°60'0 0.0
2018-May-11 16:22N 53°23' W 002°60'0 0.0
2018-May-11 15:31N 53°23' W 002°60'0 0.0
2018-May-11 15:25N 53°23' W 002°60'0 0.0
2018-May-11 14:40N 53°23' W 002°60'0 0.0
2018-May-11 14:28N 53°23' W 002°60'0 0.0
2018-May-11 13:49N 53°23' W 002°60'0 0.0
2018-May-11 13:28N 53°23' W 002°60'0 0.0
2018-May-11 12:58N 53°23' W 002°60'0 0.0
2018-May-11 12:28N 53°23' W 002°60'0 0.0
2018-May-11 11:58N 53°23' W 002°60'0 0.0
2018-May-11 11:28N 53°23' W 002°60'0 0.0
2018-May-11 10:58N 53°23' W 002°60'0 0.0
2018-May-11 10:28N 53°23' W 002°60'0 0.0
2018-May-11 09:55N 53°23' W 002°60'0 0.0
2018-May-11 09:25N 53°23' W 002°60'0 0.0
2018-May-11 08:58N 53°23' W 002°60'0 0.0
2018-May-11 08:25N 53°23' W 002°60'0 0.0
2018-May-11 07:55N 53°23' W 002°60'0 0.0
2018-May-11 07:28N 53°23' W 002°60'0 0.0
2018-May-11 06:58N 53°23' W 002°60'0 0.0
2018-May-11 06:28N 53°23' W 002°60'0 0.0
2018-May-11 05:55N 53°23' W 002°60'0 0.0
2018-May-11 05:28N 53°23' W 002°60'0 0.0
2018-May-11 04:58N 53°23' W 002°60'0 0.0
2018-May-11 04:28N 53°23' W 002°60'0 0.0
2018-May-11 03:58N 53°23' W 002°60'0 0.0
2018-May-11 03:25N 53°23' W 002°60'0 0.0
2018-May-11 02:55N 53°23' W 002°60'0 0.0
2018-May-11 02:28N 53°23' W 002°60'0 0.0
2018-May-11 01:58N 53°23' W 002°60'0 0.0
2018-May-11 01:25N 53°23' W 002°60'0 0.0
2018-May-11 00:58N 53°23' W 002°60'0 0.0
2018-May-11 00:28N 53°23' W 002°60'0 0.0
2018-May-10 23:58N 53°23' W 002°60'0 0.0
2018-May-10 23:28N 53°23' W 002°60'0 0.0
2018-May-10 22:58N 53°23' W 002°60'0 0.0
2018-May-10 22:25N 53°23' W 002°60'0 0.0
2018-May-10 21:52N 53°23' W 002°60'0 0.0
2018-May-10 21:25N 53°23' W 002°60'0 0.0
2018-May-10 20:58N 53°23' W 002°60'0 0.0
2018-May-10 20:28N 53°23' W 002°60'0 0.0
2018-May-10 20:00N 53°23' W 002°60'0 0.3
2018-May-10 19:30N 53°23' W 002°60'2 4.5
2018-May-10 19:00N 53°25' W 003°01'4 8.8
2018-May-10 18:30N 53°29' W 003°05'5 9.1
2018-May-10 18:00N 53°32' W 003°10'5 9.3
2018-May-10 17:30N 53°31' W 003°18'611.3
2018-May-10 17:00N 53°31' W 003°28'  

Dump ship's entire track history